Time;durP1;ratioP1;P1;durP2;ratioP2;P2;SDS_P1;SDS_P2;PMS_P1;PMS_P2;Temp;Humidity;BMP_temperature;BMP_pressure;BME280_temperature;BME280_humidity;BME280_pressure;Samples;Min_cycle;Max_cycle;Signal;HPM_P1;HPM_P2
2024/04/09 00:01:08;;;;;;;15.10;7.33;;;;;;;11.40;100.00;99995.81;5443397;26;20392;-89
2024/04/09 00:03:41;;;;;;;14.07;6.55;;;;;;;11.38;100.00;100007.00;5451163;26;20405;-89
2024/04/09 00:06:14;;;;;;;15.40;7.38;;;;;;;11.40;100.00;100002.03;5445865;26;20376;-89
2024/04/09 00:08:48;;;;;;;11.60;6.93;;;;;;;11.29;100.00;99992.47;5438519;26;20384;-89
2024/04/09 00:11:21;;;;;;;13.05;6.55;;;;;;;11.29;100.00;99989.75;5422514;26;20723;-89
2024/04/09 00:13:51;;;;;;;15.90;6.57;;;;;;;11.32;100.00;99980.94;5449586;26;20388;-89
2024/04/09 00:16:22;;;;;;;17.48;6.82;;;;;;;11.30;100.00;99976.94;5443740;26;20392;-90
2024/04/09 00:18:53;;;;;;;13.80;6.32;;;;;;;11.33;100.00;99974.41;5419755;26;20384;-90
2024/04/09 00:21:21;;;;;;;16.17;7.20;;;;;;;11.35;100.00;99966.75;5454612;26;20388;-89
2024/04/09 00:23:56;;;;;;;14.65;6.90;;;;;;;11.25;100.00;99941.63;5431613;26;20384;-89
2024/04/09 00:26:26;;;;;;;14.00;6.93;;;;;;;11.27;100.00;99931.22;5424513;26;20412;-89
2024/04/09 00:28:56;;;;;;;18.60;8.25;;;;;;;11.30;100.00;99923.25;5405317;26;21150;-89
2024/04/09 00:31:27;;;;;;;35.97;8.55;;;;;;;11.30;100.00;99915.09;5411456;26;20380;-87
2024/04/09 00:34:03;;;;;;;14.90;7.70;;;;;;;11.30;100.00;99925.97;5445627;26;20572;-90
2024/04/09 00:36:39;;;;;;;14.85;8.25;;;;;;;11.37;100.00;99936.47;5418099;26;20396;-90
2024/04/09 00:39:22;;;;;;;16.42;8.30;;;;;;;11.27;100.00;99936.66;5408274;26;20383;-90
2024/04/09 00:41:50;;;;;;;18.85;9.40;;;;;;;11.23;100.00;99934.56;5443968;26;20398;-90
2024/04/09 00:44:20;;;;;;;19.17;8.82;;;;;;;11.12;100.00;99916.81;5428981;26;20388;-90
2024/04/09 00:46:48;;;;;;;16.00;8.70;;;;;;;11.15;100.00;99918.91;5410507;26;20405;-90
2024/04/09 00:49:19;;;;;;;15.77;8.90;;;;;;;11.08;100.00;99926.69;5448790;26;21234;-90
2024/04/09 00:51:59;;;;;;;16.05;8.50;;;;;;;11.14;100.00;99930.91;5449341;26;20392;-89
2024/04/09 00:54:32;;;;;;;17.65;8.88;;;;;;;11.18;100.00;99923.75;5424611;26;20372;-90
2024/04/09 00:57:02;;;;;;;17.73;9.18;;;;;;;11.18;100.00;99934.66;5426172;26;20394;-90
2024/04/09 00:59:37;;;;;;;16.10;9.07;;;;;;;11.11;100.00;99941.63;5404777;26;20380;-90
2024/04/09 01:02:05;;;;;;;18.77;8.80;;;;;;;11.06;100.00;99946.06;5445753;26;20396;-90
2024/04/09 01:04:35;;;;;;;14.98;8.32;;;;;;;11.06;100.00;99943.34;5441862;26;20763;-90
2024/04/09 01:07:03;;;;;;;17.60;8.73;;;;;;;11.14;100.00;99941.00;5415905;26;20533;-90
2024/04/09 01:09:42;;;;;;;15.82;8.52;;;;;;;11.19;100.00;99947.16;5437918;26;20425;-90
2024/04/09 01:12:10;;;;;;;20.70;8.30;;;;;;;11.23;100.00;99944.66;5435286;26;20395;-90
2024/04/09 01:14:40;;;;;;;16.00;8.10;;;;;;;11.14;100.00;99952.69;5419130;26;20392;-90
2024/04/09 01:17:08;;;;;;;14.38;7.85;;;;;;;11.17;100.00;99951.28;5414920;26;20898;-91
2024/04/09 01:19:41;;;;;;;13.65;7.35;;;;;;;11.18;100.00;99950.19;5432024;26;20384;-90
2024/04/09 01:22:09;;;;;;;16.50;7.57;;;;;;;11.11;100.00;99950.59;5424610;26;20392;-90
2024/04/09 01:24:44;;;;;;;15.93;7.40;;;;;;;11.09;100.00;99944.66;5411835;26;20882;-91
2024/04/09 01:27:16;;;;;;;14.77;7.45;;;;;;;11.11;100.00;99936.97;5424680;26;20380;-90
2024/04/09 01:29:49;;;;;;;11.95;6.13;;;;;;;11.12;100.00;99951.41;5418025;26;20388;-90
2024/04/09 01:32:20;;;;;;;11.80;6.75;;;;;;;11.04;100.00;99950.97;5441033;26;20902;-90
2024/04/09 01:34:51;;;;;;;13.30;6.53;;;;;;;11.03;100.00;99948.56;5448295;26;20376;-90
2024/04/09 01:37:18;;;;;;;15.02;6.38;;;;;;;11.01;100.00;99940.69;5401162;26;20385;-90
2024/04/09 01:39:51;;;;;;;13.45;6.50;;;;;;;11.03;100.00;99943.13;5405068;26;20402;-90
2024/04/09 01:42:19;;;;;;;13.77;6.57;;;;;;;11.12;100.00;99954.13;5400097;26;20405;-90
2024/04/09 01:44:54;;;;;;;12.10;6.30;;;;;;;11.19;100.00;99944.44;5422190;26;20397;-90
2024/04/09 01:47:22;;;;;;;16.33;6.63;;;;;;;11.28;100.00;99941.81;5433287;26;20386;-90
2024/04/09 01:49:53;;;;;;;16.90;6.75;;;;;;;11.37;100.00;99931.81;5411325;26;20410;-90
2024/04/09 01:52:24;;;;;;;16.00;6.53;;;;;;;11.45;100.00;99889.44;5439360;26;20380;-91
2024/04/09 01:54:58;;;;;;;12.68;6.95;;;;;;;11.62;100.00;99877.13;5433792;26;20393;-90
2024/04/09 01:57:28;;;;;;;15.95;6.95;;;;;;;11.65;100.00;99892.84;5424759;26;20364;-90
2024/04/09 01:59:59;;;;;;;16.90;6.80;;;;;;;11.66;100.00;99884.34;5425473;26;20369;-90
2024/04/09 02:02:28;;;;;;;13.88;6.88;;;;;;;11.61;100.00;99883.66;5403693;26;20547;-90
2024/04/09 02:04:59;;;;;;;18.65;7.65;;;;;;;11.51;100.00;99893.66;5447552;26;20383;-90
2024/04/09 02:07:31;;;;;;;21.27;8.25;;;;;;;11.45;100.00;99896.81;5412200;26;20718;-90
2024/04/09 02:10:05;;;;;;;12.82;7.13;;;;;;;11.35;100.00;99906.81;5426909;26;20398;-90
2024/04/09 02:12:33;;;;;;;16.63;7.68;;;;;;;11.28;100.00;99905.59;5394635;26;20381;-90
2024/04/09 02:15:04;;;;;;;14.55;7.00;;;;;;;11.28;100.00;99909.13;5410133;26;20727;-90
2024/04/09 02:17:31;;;;;;;13.07;6.75;;;;;;;11.21;100.00;99904.09;5405411;26;20895;-90
2024/04/09 02:20:02;;;;;;;15.27;6.78;;;;;;;11.12;100.00;99899.69;5438272;26;20390;-90
2024/04/09 02:22:30;;;;;;;14.07;6.70;;;;;;;11.22;100.00;99913.06;5407290;26;20420;-90
2024/04/09 02:25:07;;;;;;;14.88;7.20;;;;;;;11.17;100.00;99914.00;5419843;26;21147;-90
2024/04/09 02:27:43;;;;;;;16.13;7.40;;;;;;;11.13;100.00;99906.72;5432329;26;20388;-90
2024/04/09 02:30:14;;;;;;;12.63;6.53;;;;;;;11.16;100.00;99915.09;5421323;26;20389;-90
2024/04/09 02:32:42;;;;;;;14.88;6.43;;;;;;;11.19;100.00;99911.75;5418003;26;20415;-90
2024/04/09 02:35:12;;;;;;;12.60;6.23;;;;;;;11.21;100.00;99915.00;5444586;26;20895;-90
2024/04/09 02:37:40;;;;;;;17.15;6.40;;;;;;;11.37;100.00;99904.59;5411239;26;20384;-91
2024/04/09 02:40:17;;;;;;;15.77;6.97;;;;;;;11.53;100.00;99917.88;5423869;26;20380;-90
2024/04/09 02:42:46;;;;;;;13.20;6.97;;;;;;;11.58;100.00;99915.84;5410065;26;20382;-90
2024/04/09 02:45:18;;;;;;;19.27;7.00;;;;;;;11.54;100.00;99903.94;5418934;26;20398;-90
2024/04/09 02:47:47;;;;;;;15.70;6.40;;;;;;;11.56;100.00;99907.19;5440572;26;20378;-91
2024/04/09 02:50:17;;;;;;;12.48;6.50;;;;;;;11.64;100.00;99908.41;5403922;26;20392;-90
2024/04/09 02:52:49;;;;;;;16.23;6.83;;;;;;;11.68;100.00;99903.94;5417850;26;20411;-90
2024/04/09 02:55:21;;;;;;;16.10;7.10;;;;;;;11.71;100.00;99903.34;5447729;26;20372;-90
2024/04/09 02:57:49;;;;;;;20.90;7.18;;;;;;;11.68;100.00;99901.22;5430998;26;22313;-91
2024/04/09 03:00:22;;;;;;;16.45;6.68;;;;;;;11.70;100.00;99892.75;5447075;26;20374;-91
2024/04/09 03:02:53;;;;;;;13.73;6.80;;;;;;;11.69;100.00;99894.63;5445121;26;20361;-90
2024/04/09 03:05:30;;;;;;;16.83;7.20;;;;;;;11.70;100.00;99890.81;5414379;26;20717;-90
2024/04/09 03:07:59;;;;;;;14.77;6.63;;;;;;;11.75;100.00;99895.34;5413738;26;20493;-90
2024/04/09 03:10:35;;;;;;;18.25;6.80;;;;;;;11.72;100.00;99885.03;5412553;26;20373;-90
2024/04/09 03:13:09;;;;;;;17.15;7.18;;;;;;;11.65;100.00;99893.63;5429854;26;20395;-90
2024/04/09 03:15:41;;;;;;;17.27;6.90;;;;;;;11.67;100.00;99902.34;5407454;26;20751;-90
2024/04/09 03:18:09;;;;;;;10.63;6.13;;;;;;;11.62;100.00;99891.53;5442162;26;20400;-91
2024/04/09 03:20:43;;;;;;;18.55;6.68;;;;;;;11.64;100.00;99894.78;5420099;26;20376;-90
2024/04/09 03:23:10;;;;;;;14.02;6.97;;;;;;;11.71;100.00;99899.78;5418630;26;20397;-90
2024/04/09 03:25:45;;;;;;;15.15;6.65;;;;;;;11.77;100.00;99892.31;5425801;26;20398;-89
2024/04/09 03:28:14;;;;;;;13.90;6.50;;;;;;;11.83;100.00;99901.97;5429344;26;20394;-90
2024/04/09 03:30:48;;;;;;;18.30;7.25;;;;;;;11.84;100.00;99892.69;5454449;26;20406;-90
2024/04/09 03:33:15;;;;;;;15.93;7.23;;;;;;;11.97;100.00;99900.03;5425580;26;20743;-90
2024/04/09 03:35:52;;;;;;;15.90;7.30;;;;;;;12.13;100.00;99883.34;5430756;26;20384;-90
2024/04/09 03:38:22;;;;;;;17.25;7.70;;;;;;;12.22;100.00;99886.91;5400827;26;21237;-90
2024/04/09 03:41:04;;;;;;;16.83;7.00;;;;;;;12.27;100.00;99884.06;5416417;26;20474;-90
2024/04/09 03:43:37;;;;;;;15.90;7.53;;;;;;;12.26;100.00;99874.25;5407599;26;20390;-90
2024/04/09 03:46:17;;;;;;;15.95;7.43;;;;;;;12.33;100.00;99854.72;5448199;26;20368;-90
2024/04/09 03:48:57;;;;;;;18.10;8.17;;;;;;;12.39;100.00;99848.03;5424777;26;20365;-90
2024/04/09 03:51:24;;;;;;;16.33;7.72;;;;;;;12.44;100.00;99849.81;5441555;26;20408;-90
2024/04/09 03:53:57;;;;;;;15.55;7.80;;;;;;;12.39;100.00;99831.69;5429202;26;20396;-90
2024/04/09 03:56:29;;;;;;;17.40;7.68;;;;;;;12.46;100.00;99831.22;5412589;26;20885;-90
2024/04/09 03:59:02;;;;;;;16.42;7.68;;;;;;;12.46;100.00;99828.50;5413630;26;20402;-90
2024/04/09 04:01:31;;;;;;;16.00;7.65;;;;;;;12.46;100.00;99829.28;5410724;26;20398;-90
2024/04/09 04:04:02;;;;;;;20.92;7.82;;;;;;;12.42;100.00;99820.91;5416179;26;20391;-89
2024/04/09 04:06:29;;;;;;;16.95;7.65;;;;;;;12.48;100.00;99807.94;5406249;26;20388;-90
2024/04/09 04:08:59;;;;;;;18.15;7.72;;;;;;;12.49;100.00;99806.84;5407653;26;20381;-90
2024/04/09 04:11:31;;;;;;;19.27;8.15;;;;;;;12.52;100.00;99811.66;5422833;26;20392;-90
2024/04/09 04:14:04;;;;;;;17.75;8.02;;;;;;;12.53;100.00;99820.66;5426349;26;20384;-90
2024/04/09 04:16:35;;;;;;;18.98;8.02;;;;;;;12.54;100.00;99830.44;5406548;26;20331;-90
2024/04/09 04:19:10;;;;;;;18.65;7.38;;;;;;;12.56;100.00;99850.84;5440735;26;20383;-90
2024/04/09 04:21:41;;;;;;;16.88;7.97;;;;;;;12.53;100.00;99845.22;5446532;26;20746;-90
2024/04/09 04:24:13;;;;;;;16.25;7.78;;;;;;;12.54;100.00;99847.63;5452528;26;21133;-90
2024/04/09 04:26:54;;;;;;;16.08;7.65;;;;;;;12.54;100.00;99853.09;5422438;26;20384;-90
2024/04/09 04:29:34;;;;;;;14.75;7.40;;;;;;;12.51;100.00;99867.38;5414058;26;20879;-90
2024/04/09 04:32:02;;;;;;;16.90;7.72;;;;;;;12.59;100.00;99871.25;5441742;26;20397;-90
2024/04/09 04:34:42;;;;;;;16.50;7.88;;;;;;;12.65;100.00;99878.22;5403761;26;20405;-90
2024/04/09 04:37:11;;;;;;;18.88;8.10;;;;;;;12.69;100.00;99876.47;5440187;26;20391;-91
2024/04/09 04:39:47;;;;;;;15.07;7.88;;;;;;;12.69;100.00;99865.53;5401418;26;20879;-90
2024/04/09 04:42:17;;;;;;;16.33;7.72;;;;;;;12.73;100.00;99869.25;5444529;26;20400;-90
2024/04/09 04:44:50;;;;;;;18.55;8.30;;;;;;;12.76;100.00;99865.09;5413898;26;20413;-90
2024/04/09 04:47:20;;;;;;;15.10;8.02;;;;;;;12.82;100.00;99871.22;5422698;26;20385;-90
2024/04/09 04:49:52;;;;;;;19.55;8.18;;;;;;;12.85;100.00;99865.13;5417082;26;20421;-90
2024/04/09 04:52:23;;;;;;;16.60;8.35;;;;;;;12.85;100.00;99851.47;5403426;26;20380;-89
2024/04/09 04:54:53;;;;;;;18.17;8.80;;;;;;;12.83;100.00;99856.41;5398697;26;20332;-90
2024/04/09 04:57:26;;;;;;;20.90;8.30;;;;;;;12.83;100.00;99850.97;5435435;26;20369;-88
2024/04/09 05:00:01;;;;;;;22.43;8.33;;;;;;;12.82;100.00;99850.16;5448300;26;21072;-90
2024/04/09 05:02:32;;;;;;;17.50;8.02;;;;;;;12.81;100.00;99836.84;5427547;26;20380;-90
2024/04/09 05:05:04;;;;;;;19.05;8.25;;;;;;;12.80;100.00;99844.22;5400879;26;20733;-90
2024/04/09 05:07:36;;;;;;;18.60;8.50;;;;;;;12.83;100.00;99853.69;5412649;26;20398;-90
2024/04/09 05:10:12;;;;;;;19.30;8.30;;;;;;;12.82;100.00;99841.97;5425913;26;20389;-90
2024/04/09 05:12:47;;;;;;;15.67;8.30;;;;;;;12.85;100.00;99849.53;5419446;26;20396;-89
2024/04/09 05:15:17;;;;;;;18.05;8.27;;;;;;;12.86;100.00;99847.63;5427261;26;20380;-90
2024/04/09 05:17:54;;;;;;;16.70;7.88;;;;;;;12.88;100.00;99835.25;5409503;26;20406;-89
2024/04/09 05:20:29;;;;;;;17.63;8.02;;;;;;;12.90;100.00;99838.47;5402124;26;20384;-88
2024/04/09 05:23:06;;;;;;;15.95;8.45;;;;;;;12.85;100.00;99838.59;5407092;26;20469;-89
2024/04/09 05:25:42;;;;;;;19.10;7.97;;;;;;;12.81;100.00;99851.28;5428760;26;20377;-89
2024/04/09 05:28:12;;;;;;;20.27;8.40;;;;;;;12.82;100.00;99820.13;5414131;26;20914;-87
2024/04/09 05:30:47;;;;;;;19.27;8.90;;;;;;;12.85;100.00;99833.16;5438950;26;20364;-89
2024/04/09 05:33:36;;;;;;;15.85;8.25;;;;;;;12.83;100.00;99827.22;5423827;26;20374;-91
2024/04/09 05:36:10;;;;;;;19.02;8.50;;;;;;;12.79;100.00;99815.31;5407481;26;20406;-91
2024/04/09 05:38:45;;;;;;;19.13;9.20;;;;;;;12.78;100.00;99785.59;5433060;26;20385;-91
2024/04/09 05:41:43;;;;;;;19.45;8.40;;;;;;;12.80;100.00;99786.91;5422346;26;20380;-91
2024/04/09 05:44:35;;;;;;;18.33;8.57;;;;;;;12.88;100.00;99774.38;5270792;26;20340;-91
2024/04/09 05:47:06;;;;;;;18.20;8.75;;;;;;;12.96;100.00;99779.06;5271782;26;20475;-91
2024/04/09 05:49:35;;;;;;;17.80;8.60;;;;;;;13.01;100.00;99770.72;5272724;26;20333;-91
2024/04/09 05:52:28;;;;;;;21.58;8.07;;;;;;;13.06;100.00;99765.09;5274722;26;20876;-91
2024/04/09 05:54:57;;;;;;;16.33;8.38;;;;;;;13.12;100.00;99760.28;5268268;26;20376;-90
2024/04/09 05:57:32;;;;;;;17.70;8.68;;;;;;;13.15;100.00;99756.91;5273974;26;20348;-90
2024/04/09 06:00:08;;;;;;;17.38;8.23;;;;;;;13.21;100.00;99749.38;5300913;26;20335;-90
2024/04/09 06:02:53;;;;;;;22.73;8.30;;;;;;;13.21;100.00;99752.88;5392000;26;20343;-90
2024/04/09 06:05:21;;;;;;;20.50;7.93;;;;;;;13.20;100.00;99745.03;5364461;26;22253;-89
2024/04/09 06:07:51;;;;;;;14.93;7.85;;;;;;;13.27;100.00;99746.16;5400002;26;20341;-88
2024/04/09 06:10:38;;;;;;;21.40;8.53;;;;;;;13.35;100.00;99757.41;5400073;26;20335;-90
2024/04/09 06:13:34;;;;;;;18.55;8.23;;;;;;;13.40;100.00;99749.88;5387613;26;20347;-90
2024/04/09 06:16:08;;;;;;;19.27;8.33;;;;;;;13.42;100.00;99744.09;5365190;26;20337;-90
2024/04/09 06:18:51;;;;;;;19.93;8.57;;;;;;;13.54;100.00;99744.25;5367939;26;20331;-91
2024/04/09 06:21:25;;;;;;;21.75;8.10;;;;;;;13.62;100.00;99739.91;5377327;26;20710;-90
2024/04/09 06:24:43;;;;;;;18.40;8.37;;;;;;;13.77;100.00;99739.41;5391494;26;20449;-89
2024/04/09 06:27:15;;;;;;;23.42;8.35;;;;;;;13.80;100.00;99724.28;5363321;26;20882;-89
2024/04/09 06:29:46;;;;;;;16.43;7.67;;;;;;;13.91;100.00;99727.47;5362022;26;20332;-90
2024/04/09 06:32:18;;;;;;;20.45;7.93;;;;;;;13.96;100.00;99721.81;5360995;26;20332;-90
2024/04/09 06:34:48;;;;;;;17.98;7.80;;;;;;;14.02;100.00;99720.53;5365062;26;20368;-90
2024/04/09 06:37:16;;;;;;;19.60;7.88;;;;;;;14.05;100.00;99730.81;5395654;26;20319;-90
2024/04/09 06:39:46;;;;;;;16.15;7.60;;;;;;;14.06;100.00;99739.84;5360452;26;20909;-90
2024/04/09 06:42:14;;;;;;;18.10;8.27;;;;;;;14.05;100.00;99743.69;5376054;26;20351;-90
2024/04/09 06:45:04;;;;;;;17.15;7.43;;;;;;;14.01;100.00;99716.16;5381768;26;20359;-90
2024/04/09 06:47:55;;;;;;;19.35;7.55;;;;;;;14.06;100.00;99721.47;5403795;26;20365;-90
2024/04/09 06:53:22;;;;;;;16.92;7.90;;;;;;;14.14;100.00;99735.44;5380598;26;20347;-90
2024/04/09 06:55:50;;;;;;;20.73;8.05;;;;;;;14.11;100.00;99720.47;5367938;26;20380;-90
2024/04/09 06:58:30;;;;;;;21.27;8.23;;;;;;;14.11;100.00;99718.56;5379876;26;20380;-90
2024/04/09 07:01:08;;;;;;;20.90;7.77;;;;;;;14.08;100.00;99718.41;5367479;26;20333;-90
2024/04/09 07:03:41;;;;;;;16.65;7.88;;;;;;;14.10;100.00;99733.38;5399967;26;20331;-90
2024/04/09 07:06:09;;;;;;;18.90;8.10;;;;;;;14.18;100.00;99747.34;5372878;26;20875;-90
2024/04/09 07:08:43;;;;;;;16.57;7.20;;;;;;;14.18;100.00;99753.59;5395714;26;20328;-90
2024/04/09 07:11:13;;;;;;;19.80;7.30;;;;;;;14.28;100.00;99775.16;5393697;26;20328;-89
2024/04/09 07:13:58;;;;;;;20.73;7.97;;;;;;;14.38;100.00;99812.31;5365350;26;20335;-88
2024/04/09 07:16:26;;;;;;;16.95;7.10;;;;;;;14.53;100.00;99840.28;5374595;26;20332;-89
2024/04/09 07:18:59;;;;;;;20.38;7.28;;;;;;;14.65;100.00;99821.25;5368546;26;20356;-89
2024/04/09 07:21:27;;;;;;;20.97;8.00;;;;;;;14.70;100.00;99858.63;5403255;26;20688;-88
2024/04/09 07:23:57;;;;;;;15.63;6.83;;;;;;;14.72;100.00;99820.75;5368302;26;20380;-89
2024/04/09 07:26:24;;;;;;;15.80;6.30;;;;;;;14.84;100.00;99885.81;5368953;26;20340;-88
2024/04/09 07:28:55;;;;;;;21.13;7.10;;;;;;;14.83;100.00;99917.06;5377150;26;20328;-88
2024/04/09 07:31:25;;;;;;;18.55;8.02;;;;;;;14.83;100.00;99928.03;5392961;26;20372;-89
2024/04/09 07:33:55;;;;;;;16.65;6.72;;;;;;;14.91;100.00;99908.03;5363175;26;20391;-88
2024/04/09 07:36:25;;;;;;;21.20;6.55;;;;;;;15.06;100.00;99920.38;5361505;26;20329;-88
2024/04/09 07:38:58;;;;;;;22.40;6.87;;;;;;;15.25;100.00;99900.78;5393373;26;20770;-88
2024/04/09 07:41:26;;;;;;;15.00;6.53;;;;;;;15.41;100.00;99879.91;5385383;26;20401;-89
2024/04/09 07:43:56;;;;;;;14.98;5.90;;;;;;;15.62;100.00;99866.19;5369971;26;20352;-88
2024/04/09 07:46:24;;;;;;;15.02;6.05;;;;;;;15.72;100.00;99826.59;5396088;26;20328;-89
2024/04/09 07:48:55;;;;;;;14.00;5.45;;;;;;;15.86;100.00;99836.53;5395135;26;20358;-88
2024/04/09 07:51:25;;;;;;;17.20;5.70;;;;;;;16.01;100.00;99840.59;5357836;26;21270;-88
2024/04/09 07:53:59;;;;;;;19.10;5.82;;;;;;;16.24;100.00;99844.56;5361697;26;20379;-89
2024/04/09 07:56:27;;;;;;;16.30;5.57;;;;;;;16.33;100.00;99842.50;5371924;26;20439;-89
2024/04/09 07:59:02;;;;;;;23.33;6.20;;;;;;;16.48;100.00;99852.03;5403852;26;20361;-89
2024/04/09 08:01:30;;;;;;;16.83;5.47;;;;;;;16.56;100.00;99860.53;5414132;26;20329;-89
2024/04/09 08:04:04;;;;;;;18.88;5.40;;;;;;;16.81;100.00;99873.16;5378966;26;20345;-89
2024/04/09 08:06:36;;;;;;;16.52;5.28;;;;;;;16.97;100.00;99881.59;5374237;26;20335;-89
2024/04/09 08:09:10;;;;;;;20.50;4.80;;;;;;;17.10;100.00;99904.38;5406368;26;20333;-89
2024/04/09 08:11:42;;;;;;;16.52;4.68;;;;;;;17.12;100.00;99906.78;5374961;26;20328;-89
2024/04/09 08:14:13;;;;;;;19.42;4.85;;;;;;;17.09;100.00;99901.97;5411786;26;20328;-88
2024/04/09 08:16:40;;;;;;;16.23;4.40;;;;;;;17.23;100.00;99898.88;5400523;26;21238;-89
2024/04/09 08:19:12;;;;;;;19.87;4.70;;;;;;;17.27;100.00;99908.03;5400385;26;20387;-89
2024/04/09 08:21:46;;;;;;;18.20;5.17;;;;;;;17.38;100.00;99908.38;5371569;26;20323;-89
2024/04/09 08:24:17;;;;;;;18.30;4.77;;;;;;;17.37;100.00;99940.56;5401322;26;20339;-89
2024/04/09 08:26:45;;;;;;;19.45;5.07;;;;;;;17.58;100.00;99909.38;5385926;26;20336;-89
2024/04/09 08:29:16;;;;;;;17.60;4.38;;;;;;;17.62;100.00;99915.78;5369228;26;21250;-89
2024/04/09 08:31:44;;;;;;;18.33;4.50;;;;;;;17.71;100.00;99932.19;5374626;26;20374;-89
2024/04/09 08:34:17;;;;;;;21.67;5.03;;;;;;;17.86;100.00;99931.47;5400103;26;20343;-89
2024/04/09 08:36:57;;;;;;;21.27;4.83;;;;;;;18.15;100.00;99929.59;5398074;26;20358;-89
2024/04/09 08:39:28;;;;;;;18.88;4.63;;;;;;;18.24;100.00;99929.44;5385742;26;20337;-88
2024/04/09 08:42:05;;;;;;;18.60;4.47;;;;;;;18.28;100.00;99933.09;5376375;26;21298;-89
2024/04/09 08:44:37;;;;;;;15.70;4.50;;;;;;;18.39;100.00;99930.63;5371983;26;20344;-89
2024/04/09 08:47:08;;;;;;;17.58;4.10;;;;;;;18.41;100.00;99918.13;5367231;26;20574;-89
2024/04/09 08:49:38;;;;;;;22.60;4.60;;;;;;;18.49;100.00;99916.34;5374979;26;20347;-89
2024/04/09 08:52:11;;;;;;;21.25;4.57;;;;;;;18.65;100.00;99914.41;5404335;26;20537;-88
2024/04/09 08:54:43;;;;;;;21.15;4.18;;;;;;;18.49;100.00;99902.56;5396347;26;21030;-89
2024/04/09 08:57:11;;;;;;;21.38;3.88;;;;;;;18.54;100.00;99910.59;5394003;26;20328;-89
2024/04/09 08:59:41;;;;;;;17.55;4.28;;;;;;;18.57;100.00;99906.34;5394835;26;20347;-89
2024/04/09 09:02:13;;;;;;;22.08;4.32;;;;;;;18.68;100.00;99913.75;5376138;26;20354;-89
2024/04/09 09:04:45;;;;;;;21.55;4.63;;;;;;;18.74;100.00;99919.78;5365219;26;20347;-89
2024/04/09 09:07:16;;;;;;;18.13;3.90;;;;;;;18.65;100.00;99897.88;5363694;26;20373;-87
2024/04/09 09:09:51;;;;;;;15.18;4.20;;;;;;;18.72;100.00;99885.47;5407068;26;20315;-88
2024/04/09 09:12:19;;;;;;;18.42;4.55;;;;;;;18.63;100.00;99886.44;5397486;26;20328;-88
2024/04/09 09:14:55;;;;;;;18.13;4.43;;;;;;;18.76;100.00;99869.81;5368426;26;20321;-89
2024/04/09 09:17:25;;;;;;;15.77;3.70;;;;;;;18.78;100.00;99865.56;5397985;26;20327;-89
2024/04/09 09:20:08;;;;;;;17.65;4.63;;;;;;;18.80;100.00;99857.72;5394682;26;20329;-89
2024/04/09 09:22:45;;;;;;;20.75;4.65;;;;;;;18.93;100.00;99854.91;5398700;26;20339;-88
2024/04/09 09:25:18;;;;;;;19.23;3.77;;;;;;;18.94;100.00;99853.75;5375727;26;20357;-89
2024/04/09 09:27:46;;;;;;;19.25;4.38;;;;;;;18.74;100.00;99864.66;5401252;26;20333;-89
2024/04/09 09:30:16;;;;;;;18.70;4.53;;;;;;;18.74;100.00;99874.88;5414025;26;21168;-88
2024/04/09 09:32:48;;;;;;;19.90;4.28;;;;;;;18.82;100.00;99882.97;5376987;26;20619;-88
2024/04/09 09:35:20;;;;;;;21.45;4.97;;;;;;;18.92;100.00;99894.66;5411583;26;20335;-89
2024/04/09 09:37:51;;;;;;;18.75;4.18;;;;;;;18.89;100.00;99896.16;5368519;26;20324;-89
2024/04/09 09:40:28;;;;;;;20.23;3.90;;;;;;;18.91;100.00;99893.84;5377442;26;20352;-88
2024/04/09 09:42:56;;;;;;;17.20;3.85;;;;;;;18.93;100.00;99899.81;5365971;26;20333;-89
2024/04/09 09:45:27;;;;;;;17.50;3.70;;;;;;;18.88;100.00;99905.59;5341397;26;20553;-89
2024/04/09 09:47:55;;;;;;;17.25;3.60;;;;;;;19.02;100.00;99927.22;5372340;26;21001;-89
2024/04/09 09:50:29;;;;;;;16.13;3.88;;;;;;;19.11;100.00;99938.88;5396180;26;20362;-88
2024/04/09 09:53:01;;;;;;;13.93;3.67;;;;;;;18.96;100.00;99936.88;5394056;26;20311;-89
2024/04/09 09:55:32;;;;;;;16.53;4.03;;;;;;;18.88;100.00;99949.72;5377635;26;20364;-89
2024/04/09 09:58:03;;;;;;;17.15;4.00;;;;;;;18.90;100.00;99947.38;5377249;26;20366;-88
2024/04/09 10:00:37;;;;;;;21.07;3.73;;;;;;;19.02;100.00;99952.03;5368397;26;20442;-89
2024/04/09 10:03:05;;;;;;;12.98;3.60;;;;;;;18.90;100.00;99958.41;5401378;26;21303;-88
2024/04/09 10:05:35;;;;;;;14.13;3.00;;;;;;;18.93;100.00;99965.19;5402469;26;20329;-89
2024/04/09 10:08:14;;;;;;;10.60;3.08;;;;;;;19.07;100.00;99978.53;5372422;26;20372;-88
2024/04/09 10:10:44;;;;;;;15.20;3.20;;;;;;;18.93;100.00;99984.47;5394650;26;20343;-88
2024/04/09 10:13:12;;;;;;;20.75;3.97;;;;;;;19.03;100.00;99997.75;5397951;26;20373;-88
2024/04/09 10:15:47;;;;;;;13.52;3.10;;;;;;;18.85;100.00;99992.53;5391254;26;20335;-89
2024/04/09 10:18:33;;;;;;;11.35;2.83;;;;;;;18.62;100.00;100002.53;5399198;26;20339;-89
2024/04/09 10:21:04;;;;;;;11.98;2.80;;;;;;;18.69;100.00;100008.22;5365140;26;21471;-88
2024/04/09 10:23:38;;;;;;;10.80;2.80;;;;;;;18.70;100.00;100012.59;5392500;26;21213;-89
2024/04/09 10:26:08;;;;;;;9.82;2.67;;;;;;;18.65;100.00;100007.31;5363755;26;21080;-89
2024/04/09 10:28:37;;;;;;;9.40;2.50;;;;;;;18.51;100.00;100000.25;5406706;26;20339;-88
2024/04/09 10:31:09;;;;;;;10.40;2.63;;;;;;;18.21;100.00;100001.75;5395278;26;21143;-88
2024/04/09 10:33:38;;;;;;;11.45;2.60;;;;;;;17.99;100.00;99982.63;5396823;26;20343;-88
2024/04/09 10:36:10;;;;;;;10.93;2.90;;;;;;;17.83;100.00;99954.19;5398283;26;20376;-88
2024/04/09 10:38:41;;;;;;;10.97;2.73;;;;;;;17.90;100.00;99979.19;5393243;26;20336;-88
2024/04/09 10:41:12;;;;;;;11.50;2.55;;;;;;;17.94;100.00;100006.81;5361651;26;20340;-88
2024/04/09 10:43:40;;;;;;;10.05;2.80;;;;;;;18.22;100.00;100006.91;5373705;26;20375;-88
2024/04/09 10:46:10;;;;;;;9.68;2.60;;;;;;;18.37;100.00;99999.88;5408009;26;20337;-88
2024/04/09 10:48:39;;;;;;;13.17;2.87;;;;;;;18.44;100.00;100022.09;5363114;26;20487;-88
2024/04/09 10:51:09;;;;;;;11.00;2.70;;;;;;;18.29;100.00;100025.59;5395639;26;20947;-88
2024/04/09 10:53:37;;;;;;;10.43;2.58;;;;;;;18.32;100.00;100030.41;5383580;26;20339;-88
2024/04/09 10:56:11;;;;;;;9.52;2.38;;;;;;;18.17;100.00;100021.72;5399467;26;20336;-87
2024/04/09 10:58:38;;;;;;;10.90;2.90;;;;;;;17.86;100.00;100019.53;5363155;26;20339;-87
2024/04/09 11:01:12;;;;;;;8.82;2.40;;;;;;;17.45;100.00;100011.16;5357644;26;20339;-88
2024/04/09 11:03:40;;;;;;;6.65;2.35;;;;;;;17.55;100.00;100017.38;5397532;26;20354;-87
2024/04/09 11:06:10;;;;;;;9.38;2.60;;;;;;;17.50;100.00;100049.47;5375242;26;22183;-88
2024/04/09 11:08:38;;;;;;;10.47;2.77;;;;;;;17.56;100.00;100041.00;5391911;26;20399;-87
2024/04/09 11:11:12;;;;;;;7.35;2.40;;;;;;;17.63;100.00;100047.50;5364304;26;20383;-88
2024/04/09 11:13:41;;;;;;;9.93;2.78;;;;;;;17.72;100.00;100063.09;5364838;26;20333;-88
2024/04/09 11:16:19;;;;;;;7.15;2.42;;;;;;;17.65;100.00;100071.97;5394473;26;20343;-87
2024/04/09 11:18:55;;;;;;;9.82;2.85;;;;;;;17.53;100.00;100050.72;5363404;26;20867;-88
2024/04/09 11:21:26;;;;;;;11.93;2.65;;;;;;;17.40;100.00;100049.91;5396748;26;20337;-88
2024/04/09 11:23:53;;;;;;;7.03;2.80;;;;;;;17.14;100.00;100051.00;5404228;26;22004;-88
2024/04/09 11:26:26;;;;;;;10.88;2.95;;;;;;;16.93;100.00;100039.25;5402814;26;22173;-88
2024/04/09 11:28:54;;;;;;;10.32;3.20;;;;;;;16.81;100.00;100040.78;5387315;26;20337;-88
2024/04/09 11:31:25;;;;;;;8.38;2.95;;;;;;;16.81;100.00;100027.03;5401482;26;20341;-88
2024/04/09 11:33:52;;;;;;;9.02;2.90;;;;;;;16.84;100.00;100042.06;5405690;26;20345;-88
2024/04/09 11:36:22;;;;;;;8.77;3.25;;;;;;;16.88;100.00;100081.47;5399462;26;20335;-88
2024/04/09 11:38:50;;;;;;;8.35;3.17;;;;;;;16.91;100.00;100099.25;5402490;26;20359;-88
2024/04/09 11:41:26;;;;;;;9.70;3.20;;;;;;;17.30;100.00;100081.41;5369525;26;20375;-88
2024/04/09 11:43:58;;;;;;;10.48;2.92;;;;;;;17.37;100.00;100091.03;5345208;26;20336;-88